Aérodrome :
LOGIN :

S'inscrire | Disclaimer

   EN    FR    IT 

 










Légende :    VFR   VFR Marginal   IFR   IFR Intensif   IFR Très Intensif
Visi : 
Plafond : 
>= 8 km
>= 3000ft
5 à 8 km
1000 à 3000 ft
1500m à 5 km
500 à 1000 ft
800 à 1500m
200 à 500 ft
< 800m
< 200 ft
Symboles :   Orages  Brouillard  Fortes neiges  Fortes précipitations  Vent > 20 kt
SIGMETs :   Divers  Orages  Givrage  Turbulence  Onde Orograph.  Cendres Volcan.






- Altitude de l'aérodrome : 1966 ft
- Code IATA : SGE


EDGS - Siegerland

DERNIER METAR :
  • 301950Z AUTO 30016KT 0800 R13/1400D // OVC001/// 13/13 Q1013

METARs EXPIRÉS :
  • 301920Z AUTO 29014KT 9999 // BKN003/// BKN130/// 14/14 Q1013
  • 301850Z AUTO 28016KT 9999 // FEW007/// SCT120/// BKN150/// 16/14 Q1012
  • 301820Z AUTO 20006KT 170V240 9999 // FEW100/// SCT160/// 25/12 Q1011
  • 301750Z 16008KT 120V180 CAVOK 25/14 Q1011
  • 301720Z 15010KT CAVOK 25/13 Q1011

TAF TAF EDGS
Valide du 30 à 18h jusqu'au 01 à 03h UTC


301700Z 3018/0103 14006KT 9999 FEW040
BECMG 3018/3019 28009KT
PROB40
TEMPO 3018/0101 28015G25KT 4000 SHRA BKN020CB
PROB30
TEMPO 3019/3024 28020G35KT 2000 +TSRA BKN002CB
BECMG 3019/3022 BKN007



MET'MAP, la Météo Aéronautique d'un coup d'oeil ! - Copyright ORBIFLY Décembre 2007 - Disclaimer

ORBIFLY MET'MAP TEAM :

Programmation & Développement : Alexandra Zaïnal
Sur une idée originale de : Baudouin d'Aumeries
Soutien technique & logistique : Manuel Goepfert
Assistance : Marc-Olivier Méhu




SOURCES & CREDITS :

   NOAA